Time;durP1;ratioP1;P1;durP2;ratioP2;P2;SDS_P1;SDS_P2;PMS_P1;PMS_P2;Temp;Humidity;BMP_temperature;BMP_pressure;BME280_temperature;BME280_humidity;BME280_pressure;Samples;Min_cycle;Max_cycle;Signal;HPM_P1;HPM_P2
2024/01/12 00:02:43;;;;;;;52.00;36.88;;;;;;;-2.23;100.00;102882.94;10463226;28;20033;-78
2024/01/12 00:07:44;;;;;;;67.50;41.80;;;;;;;-2.20;100.00;102885.00;10443673;28;20384;-79
2024/01/12 00:12:45;;;;;;;72.57;47.30;;;;;;;-2.23;100.00;102882.94;10496445;28;20048;-78
2024/01/12 00:17:45;;;;;;;58.13;39.40;;;;;;;-2.27;100.00;102867.88;10489088;28;20040;-79
2024/01/12 00:22:46;;;;;;;75.03;41.93;;;;;;;-2.29;100.00;102866.75;10489056;28;20400;-78
2024/01/12 00:27:47;;;;;;;65.50;40.83;;;;;;;-2.32;100.00;102866.34;10546028;27;20067;-79
2024/01/12 00:32:47;;;;;;;68.50;40.60;;;;;;;-2.27;100.00;102861.13;10532398;28;20448;-78
2024/01/12 00:37:49;;;;;;;106.90;48.27;;;;;;;-2.25;100.00;102863.88;10497606;28;20063;-79
2024/01/12 00:42:50;;;;;;;87.43;46.05;;;;;;;-2.26;100.00;102870.66;10530673;28;20048;-78
2024/01/12 00:47:50;;;;;;;93.90;42.60;;;;;;;-2.28;100.00;102858.31;10529203;27;20044;-79
2024/01/12 00:52:52;;;;;;;64.63;41.97;;;;;;;-2.29;100.00;102859.03;10527354;27;20040;-78
2024/01/12 00:57:52;;;;;;;87.10;44.67;;;;;;;-2.29;100.00;102859.03;10488197;28;20075;-78
2024/01/12 01:02:53;;;;;;;100.83;50.23;;;;;;;-2.28;100.00;102864.41;10487673;28;20123;-78
2024/01/12 01:07:53;;;;;;;98.60;55.43;;;;;;;-2.26;100.00;102864.59;10487295;28;20033;-79
2024/01/12 01:12:54;;;;;;;87.77;50.63;;;;;;;-2.23;100.00;102857.28;10509621;27;20475;-78
2024/01/12 01:17:54;;;;;;;88.37;50.93;;;;;;;-2.29;100.00;102853.91;10526339;27;20143;-79
2024/01/12 01:22:55;;;;;;;99.33;52.00;;;;;;;-2.20;100.00;102861.91;10526282;27;20079;-79
2024/01/12 01:27:55;;;;;;;107.87;52.50;;;;;;;-2.22;100.00;102861.69;10521942;27;20080;-79
2024/01/12 01:32:56;;;;;;;111.33;55.10;;;;;;;-2.22;100.00;102870.34;10506397;27;20079;-78
2024/01/12 01:37:56;;;;;;;103.50;55.30;;;;;;;-2.23;100.00;102888.06;10517079;27;20044;-77
2024/01/12 01:43:02;;;;;;;110.50;64.27;;;;;;;-2.16;100.00;102888.16;10520859;27;20119;-78
2024/01/12 01:48:05;;;;;;;104.07;58.33;;;;;;;-2.21;100.00;102886.63;10506974;28;20066;-78
2024/01/12 01:53:07;;;;;;;116.10;58.63;;;;;;;-2.20;100.00;102888.47;10502310;27;20036;-78
2024/01/12 01:58:07;;;;;;;110.32;63.53;;;;;;;-2.19;100.00;102892.88;10481933;28;20506;-78
2024/01/12 02:03:08;;;;;;;112.27;59.90;;;;;;;-2.17;100.00;102893.09;10464204;28;20194;-78
2024/01/12 02:08:08;;;;;;;88.70;58.57;;;;;;;-2.19;100.00;102879.16;10488531;28;20166;-78
2024/01/12 02:13:09;;;;;;;108.97;56.57;;;;;;;-2.18;100.00;102881.91;10505392;28;20115;-78
2024/01/12 02:18:09;;;;;;;89.50;52.73;;;;;;;-2.13;100.00;102877.38;10466289;28;20124;-78
2024/01/12 02:23:10;;;;;;;114.77;70.03;;;;;;;-2.19;100.00;102869.78;10482095;28;20040;-78
2024/01/12 02:28:12;;;;;;;95.47;59.80;;;;;;;-2.18;100.00;102868.16;10482293;28;20123;-79
2024/01/12 02:33:12;;;;;;;;;;;;;;;-2.19;100.00;102862.09;10463617;28;20102;-79
2024/01/12 02:38:13;;;;;;;117.10;63.83;;;;;;;-2.20;100.00;102852.56;10521134;27;19963;-77
2024/01/12 02:43:13;;;;;;;101.60;60.03;;;;;;;-2.18;100.00;102855.34;10507674;27;20071;-79
2024/01/12 02:48:14;;;;;;;113.13;62.10;;;;;;;-2.18;100.00;102856.25;10482320;28;20097;-80
2024/01/12 02:53:14;;;;;;;81.17;50.00;;;;;;;-2.06;100.00;102864.63;10481696;28;20101;-80
2024/01/12 02:58:15;;;;;;;82.07;47.73;;;;;;;-2.12;100.00;102844.22;10482347;28;20071;-78
2024/01/12 03:03:15;;;;;;;117.73;67.87;;;;;;;-2.15;100.00;102840.34;10484216;28;20044;-79
2024/01/12 03:08:15;;;;;;;105.97;62.53;;;;;;;-2.16;100.00;102828.25;10457560;28;20662;-78
2024/01/12 03:13:16;;;;;;;110.97;64.43;;;;;;;-2.18;100.00;102830.59;10484373;28;20120;-78
2024/01/12 03:18:16;;;;;;;74.33;47.97;;;;;;;-2.17;100.00;102827.31;10482691;28;20037;-79
2024/01/12 03:23:17;;;;;;;112.20;62.07;;;;;;;-2.16;100.00;102844.53;10464110;28;20073;-78
2024/01/12 03:28:17;;;;;;;101.57;58.57;;;;;;;-2.17;100.00;102839.22;10482187;28;20029;-78
2024/01/12 03:33:18;;;;;;;118.77;65.40;;;;;;;-2.16;100.00;102836.84;10481365;28;20647;-78
2024/01/12 03:38:18;;;;;;;133.97;75.47;;;;;;;-2.17;100.00;102831.53;10487817;28;20437;-78
2024/01/12 03:43:19;;;;;;;127.13;65.70;;;;;;;-2.17;100.00;102819.59;10535161;28;20048;-79
2024/01/12 03:48:19;;;;;;;102.07;60.37;;;;;;;-2.16;100.00;102821.44;10461681;28;20575;-79
2024/01/12 03:53:20;;;;;;;104.27;56.73;;;;;;;-2.07;100.00;102824.31;10491389;28;20127;-80
2024/01/12 03:58:20;;;;;;;109.80;73.80;;;;;;;-2.12;100.00;102825.34;10472637;28;20424;-80
2024/01/12 04:03:21;;;;;;;112.53;65.40;;;;;;;-2.16;100.00;102811.19;10489295;28;20123;-79
2024/01/12 04:08:21;;;;;;;121.87;69.37;;;;;;;-2.16;100.00;102803.47;10497185;28;20044;-80
2024/01/12 04:13:22;;;;;;;133.93;73.83;;;;;;;-2.20;100.00;102805.47;10490089;28;20153;-80
2024/01/12 04:18:23;;;;;;;129.43;75.97;;;;;;;-2.24;100.00;102794.81;10470076;28;20467;-80
2024/01/12 04:23:24;;;;;;;123.47;69.68;;;;;;;-2.23;100.00;102803.41;10490603;28;20488;-79
2024/01/12 04:28:24;;;;;;;116.87;68.17;;;;;;;-2.23;100.00;102791.53;10489851;28;20123;-80
2024/01/12 04:33:25;;;;;;;109.10;63.97;;;;;;;-2.22;100.00;102793.38;10487687;28;20119;-79
2024/01/12 04:38:26;;;;;;;118.40;62.27;;;;;;;-2.19;100.00;102799.63;10416680;28;20526;-79
2024/01/12 04:43:26;;;;;;;135.53;64.40;;;;;;;-2.19;100.00;102800.53;10416983;28;20511;-79
2024/01/12 04:48:27;;;;;;;111.43;69.03;;;;;;;-2.18;100.00;102815.19;10435256;28;20056;-79
2024/01/12 04:53:27;;;;;;;116.73;73.93;;;;;;;-2.14;100.00;102808.84;10432862;28;20045;-78
2024/01/12 04:58:30;;;;;;;135.27;70.90;;;;;;;-2.17;100.00;102803.31;10434883;28;20071;-78
2024/01/12 05:03:31;;;;;;;119.13;68.85;;;;;;;-2.13;100.00;102801.31;10420689;28;20047;-78
2024/01/12 05:08:34;;;;;;;115.17;69.43;;;;;;;-2.16;100.00;102805.16;10466319;28;20140;-78
2024/01/12 05:13:34;;;;;;;117.25;73.85;;;;;;;-2.16;100.00;102790.66;10472245;28;20091;-79
2024/01/12 05:18:35;;;;;;;86.10;49.80;;;;;;;-2.09;100.00;102790.72;10486438;28;20064;-78
2024/01/12 05:23:35;;;;;;;154.13;74.57;;;;;;;-2.13;100.00;102779.88;10488227;27;20041;-78
2024/01/12 05:28:36;;;;;;;125.80;72.10;;;;;;;-2.10;100.00;102780.28;10467080;28;20090;-79
2024/01/12 05:33:36;;;;;;;145.80;67.17;;;;;;;-2.13;100.00;102779.88;10487823;28;20087;-79
2024/01/12 05:38:37;;;;;;;123.77;76.90;;;;;;;-2.16;100.00;102766.66;10486065;28;20041;-80
2024/01/12 05:43:37;;;;;;;94.67;54.43;;;;;;;-2.22;100.00;102777.97;10492982;28;20147;-82
2024/01/12 05:48:38;;;;;;;119.37;68.67;;;;;;;-2.20;100.00;102784.94;10495957;27;20075;-81
2024/01/12 05:53:38;;;;;;;131.13;70.17;;;;;;;-2.15;100.00;102787.38;10509266;27;20039;-81
2024/01/12 05:58:39;;;;;;;132.53;70.33;;;;;;;-2.11;100.00;102786.13;10481794;27;20036;-81
2024/01/12 06:03:40;;;;;;;122.27;67.70;;;;;;;-2.15;100.00;102804.44;10466631;28;20391;-82
2024/01/12 06:08:41;;;;;;;146.63;81.03;;;;;;;-2.10;100.00;102803.38;10471790;28;20381;-79
2024/01/12 06:13:41;;;;;;;146.75;80.32;;;;;;;-1.99;100.00;102815.00;10478318;28;20082;-81
2024/01/12 06:18:42;;;;;;;137.77;74.27;;;;;;;-2.02;100.00;102805.28;10511487;27;20044;-80
2024/01/12 06:23:42;;;;;;;91.83;53.47;;;;;;;-1.99;100.00;102805.69;10485276;28;20037;-80
2024/01/12 06:28:43;;;;;;;136.47;75.53;;;;;;;-2.02;100.00;102817.19;10483527;28;20072;-80
2024/01/12 06:33:43;;;;;;;123.67;78.60;;;;;;;-2.03;100.00;102818.84;10458837;28;20392;-79
2024/01/12 06:38:44;;;;;;;127.40;67.80;;;;;;;-2.03;100.00;102815.34;10454293;28;20124;-81
2024/01/12 06:43:44;;;;;;;125.97;69.53;;;;;;;-2.04;100.00;102816.06;10490666;28;20186;-81
2024/01/12 06:48:45;;;;;;;122.73;75.93;;;;;;;-2.05;100.00;102817.72;10456341;28;20028;-82
2024/01/12 06:53:45;;;;;;;123.40;73.17;;;;;;;-2.03;100.00;102817.91;10455764;28;20461;-82
2024/01/12 06:58:46;;;;;;;119.93;75.17;;;;;;;-2.05;100.00;102817.72;10454030;28;20166;-81
2024/01/12 07:03:46;;;;;;;142.90;79.50;;;;;;;-2.07;100.00;102822.66;10501586;28;20057;-81
2024/01/12 07:08:47;;;;;;;161.13;74.57;;;;;;;-2.05;100.00;102803.97;10481501;28;20039;-81
2024/01/12 07:13:47;;;;;;;133.83;67.90;;;;;;;-2.09;100.00;102806.13;10509258;28;20132;-82
2024/01/12 07:18:48;;;;;;;114.93;72.83;;;;;;;-2.10;100.00;102800.81;10515056;28;20036;-81
2024/01/12 07:23:49;;;;;;;106.00;66.77;;;;;;;-2.10;100.00;102798.25;10506434;28;20502;-81
2024/01/12 07:28:49;;;;;;;124.05;69.85;;;;;;;-2.11;100.00;102796.41;10530774;28;20051;-80
2024/01/12 07:33:50;;;;;;;115.67;71.93;;;;;;;-2.12;100.00;102797.13;10530256;28;20542;-82
2024/01/12 07:38:50;;;;;;;113.63;65.20;;;;;;;-2.11;100.00;102807.56;10531123;28;20046;-81
2024/01/12 07:43:51;;;;;;;114.77;70.10;;;;;;;-2.10;100.00;102801.72;10529729;28;20131;-81
2024/01/12 07:48:53;;;;;;;123.53;72.93;;;;;;;-2.10;100.00;102804.28;10529211;28;20105;-81
2024/01/12 07:53:54;;;;;;;116.80;65.38;;;;;;;-2.05;100.00;102807.47;10527364;28;20502;-81
2024/01/12 07:58:56;;;;;;;126.60;73.97;;;;;;;-2.03;100.00;102799.94;10529468;28;20074;-81
2024/01/12 08:03:56;;;;;;;127.97;74.05;;;;;;;-2.02;100.00;102806.91;10528096;28;20490;-82
2024/01/12 08:08:56;;;;;;;136.23;78.27;;;;;;;-2.00;100.00;102803.84;10531565;28;20124;-81
2024/01/12 08:13:57;;;;;;;102.27;60.13;;;;;;;-1.98;100.00;102797.25;10528293;28;20044;-81
2024/01/12 08:18:58;;;;;;;115.33;70.90;;;;;;;-1.88;100.00;102807.06;10526321;28;20064;-81
2024/01/12 08:23:58;;;;;;;93.77;58.03;;;;;;;-1.86;100.00;102813.31;10514988;28;20119;-81
2024/01/12 08:29:02;;;;;;;123.53;76.67;;;;;;;-1.84;100.00;102816.09;10507923;27;20136;-81
2024/01/12 08:34:03;;;;;;;113.38;73.97;;;;;;;-1.83;100.00;102828.19;10515141;27;20028;-81
2024/01/12 08:39:04;;;;;;;119.10;70.57;;;;;;;-1.82;100.00;102820.69;10510456;27;20551;-82
2024/01/12 08:44:06;;;;;;;125.07;69.70;;;;;;;-1.74;100.00;102815.59;10514157;28;20036;-81
2024/01/12 08:49:06;;;;;;;107.87;61.70;;;;;;;-1.74;100.00;102815.59;10527312;27;20484;-82
2024/01/12 08:54:07;;;;;;;113.57;69.83;;;;;;;-1.75;100.00;102817.28;10528351;27;20399;-82
2024/01/12 08:59:08;;;;;;;118.73;67.10;;;;;;;-1.73;100.00;102817.44;10526715;27;20123;-82
2024/01/12 09:04:08;;;;;;;117.30;71.67;;;;;;;-1.71;100.00;102816.94;10527482;27;20112;-82
2024/01/12 09:09:09;;;;;;;125.67;74.77;;;;;;;-1.63;100.00;102815.34;10519316;28;20766;-82
2024/01/12 09:14:09;;;;;;;126.83;68.93;;;;;;;-1.59;100.00;102809.88;10484818;28;20047;-81
2024/01/12 09:19:10;;;;;;;108.77;68.33;;;;;;;-1.59;100.00;102816.66;10486523;28;20124;-81
2024/01/12 09:24:11;;;;;;;101.73;64.07;;;;;;;-1.56;100.00;102827.34;10486129;28;20121;-81
2024/01/12 09:29:12;;;;;;;;;;;;;;;-1.45;100.00;102821.91;10485785;28;20045;-80
2024/01/12 09:34:12;;;;;;;110.57;65.18;;;;;;;-1.44;100.00;102821.19;10483505;28;19920;-81
2024/01/12 09:39:14;;;;;;;121.97;63.97;;;;;;;-1.43;100.00;102823.03;10483751;28;20393;-81
2024/01/12 09:44:22;;;;;;;98.75;64.35;;;;;;;-1.44;100.00;102815.13;10485164;28;20036;-80
2024/01/12 09:49:25;;;;;;;110.57;67.50;;;;;;;-1.36;100.00;102817.94;10483272;27;20037;-80
2024/01/12 09:54:26;;;;;;;110.80;63.20;;;;;;;-1.35;100.00;102801.81;10482659;28;20032;-80
2024/01/12 09:59:27;;;;;;;100.33;61.43;;;;;;;-1.20;100.00;102791.63;10484420;27;20501;-80
2024/01/12 10:04:27;;;;;;;121.53;61.40;;;;;;;-1.05;100.00;102796.13;10482178;27;20143;-81
2024/01/12 10:09:28;;;;;;;109.93;56.97;;;;;;;-0.93;100.00;102807.00;10484097;27;20147;-81
2024/01/12 10:14:28;;;;;;;113.80;58.47;;;;;;;-0.89;100.00;102806.66;10481526;28;20131;-80
2024/01/12 10:19:29;;;;;;;87.20;58.37;;;;;;;-0.87;100.00;102791.44;10466520;28;20191;-81
2024/01/12 10:24:30;;;;;;;94.77;57.70;;;;;;;-0.70;100.00;102793.50;10482480;28;20079;-80
2024/01/12 10:29:31;;;;;;;84.15;50.17;;;;;;;-0.58;100.00;102794.13;10483633;28;20048;-80
2024/01/12 10:34:34;;;;;;;75.17;49.83;;;;;;;-0.53;100.00;102784.38;10483013;28;20131;-80
2024/01/12 10:39:36;;;;;;;85.32;51.05;;;;;;;-0.34;100.00;102767.91;10505389;27;20044;-80
2024/01/12 10:44:36;;;;;;;62.42;43.55;;;;;;;-0.21;100.00;102783.19;10522738;27;20123;-80
2024/01/12 10:49:45;;;;;;;68.77;39.57;;;;;;;-0.21;100.00;102762.63;10486148;28;20050;-81
2024/01/12 10:55:05;;;;;;;68.05;43.47;;;;;;;-0.05;100.00;102762.81;10510756;28;20497;-81
2024/01/12 11:00:08;;;;;;;66.50;42.45;;;;;;;0.11;100.00;102744.03;10482401;28;20032;-80
2024/01/12 11:05:08;;;;;;;80.63;38.95;;;;;;;0.26;100.00;102737.25;10504289;28;20036;-80
2024/01/12 11:10:09;;;;;;;61.60;39.97;;;;;;;0.38;100.00;102730.97;10502447;27;20119;-81
2024/01/12 11:15:10;;;;;;;62.07;34.77;;;;;;;0.49;100.00;102719.34;10516985;28;20040;-80
2024/01/12 11:20:11;;;;;;;61.13;31.83;;;;;;;0.62;100.00;102725.94;10497582;28;20075;-81
2024/01/12 11:25:13;;;;;;;39.63;24.38;;;;;;;0.76;100.00;102720.75;10497765;27;20483;-81
2024/01/12 11:30:15;;;;;;;52.03;24.50;;;;;;;0.97;100.00;102716.25;10514985;28;20037;-81
2024/01/12 11:35:19;;;;;;;;;;;;;;;1.01;100.00;102705.56;10501031;28;20494;-81
2024/01/12 11:40:20;;;;;;;42.30;25.45;;;;;;;1.02;100.00;102705.75;10522421;28;20010;-80
2024/01/12 11:45:20;;;;;;;44.63;22.10;;;;;;;1.10;100.00;102704.03;10522397;28;20399;-80
2024/01/12 11:50:24;;;;;;;40.72;26.38;;;;;;;1.06;100.00;102700.94;10522119;28;20089;-80
2024/01/12 11:55:25;;;;;;;32.58;22.33;;;;;;;1.03;100.00;102706.66;10521789;28;20035;-80
2024/01/12 12:00:25;;;;;;;34.47;20.35;;;;;;;0.97;100.00;102713.69;10504447;28;20532;-81
2024/01/12 12:05:28;;;;;;;37.75;22.25;;;;;;;0.90;100.00;102717.22;10523582;28;20184;-81
2024/01/12 12:10:28;;;;;;;30.77;21.70;;;;;;;0.87;100.00;102728.09;10524314;28;20101;-80
2024/01/12 12:15:29;;;;;;;38.90;23.50;;;;;;;0.85;100.00;102719.25;10530757;28;20501;-81
2024/01/12 12:20:29;;;;;;;29.10;21.93;;;;;;;0.73;100.00;102723.91;10529252;28;20047;-80
2024/01/12 12:25:30;;;;;;;32.27;21.93;;;;;;;0.73;100.00;102723.91;10512679;28;20550;-80
2024/01/12 12:30:31;;;;;;;35.70;24.10;;;;;;;0.80;100.00;102717.78;10521601;27;20058;-80
2024/01/12 12:35:32;;;;;;;32.97;20.15;;;;;;;0.79;100.00;102709.91;10519606;27;20437;-81
2024/01/12 12:40:33;;;;;;;33.50;18.27;;;;;;;0.73;100.00;102716.19;10510547;27;20559;-81
2024/01/12 12:45:33;;;;;;;32.53;19.75;;;;;;;0.67;100.00;102709.38;10494506;27;20047;-81
2024/01/12 12:50:34;;;;;;;42.23;21.13;;;;;;;0.63;100.00;102708.09;10510281;27;20403;-80
2024/01/12 12:55:34;;;;;;;56.73;25.90;;;;;;;0.60;100.00;102691.34;10522198;27;20051;-79
2024/01/12 13:00:35;;;;;;;41.27;21.67;;;;;;;0.66;100.00;102692.06;10520181;27;20123;-80
2024/01/12 13:05:37;;;;;;;37.57;22.30;;;;;;;0.64;100.00;102703.84;10519421;27;20123;-80
2024/01/12 13:10:39;;;;;;;35.00;23.83;;;;;;;0.56;100.00;102692.66;10509573;27;20040;-79
2024/01/12 13:15:42;;;;;;;50.75;24.25;;;;;;;0.55;100.00;102695.97;10525869;28;20135;-79
2024/01/12 13:20:48;;;;;;;31.45;21.02;;;;;;;0.47;100.00;102689.00;10524038;27;20054;-78
2024/01/12 13:25:49;;;;;;;37.80;23.48;;;;;;;0.47;100.00;102689.91;10483121;28;20361;-78
2024/01/12 13:30:49;;;;;;;38.27;24.93;;;;;;;0.45;100.00;102672.44;10482987;28;20064;-79
2024/01/12 13:35:50;;;;;;;37.57;22.90;;;;;;;0.44;100.00;102684.41;10477198;28;20150;-79
2024/01/12 13:40:50;;;;;;;40.35;23.38;;;;;;;0.38;100.00;102669.16;10477751;28;20120;-78
2024/01/12 13:45:51;;;;;;;36.07;24.77;;;;;;;0.35;100.00;102665.28;10465753;28;20131;-79
2024/01/12 13:50:52;;;;;;;36.10;26.67;;;;;;;0.36;100.00;102651.66;10484815;28;20040;-80
2024/01/12 13:55:52;;;;;;;34.27;23.20;;;;;;;0.34;100.00;102645.41;10463124;28;20040;-81
2024/01/12 14:00:53;;;;;;;38.50;22.17;;;;;;;0.32;100.00;102655.56;10460745;28;20061;-79
2024/01/12 14:05:54;;;;;;;39.27;21.17;;;;;;;0.28;100.00;102648.22;10448400;28;20456;-80
2024/01/12 14:10:54;;;;;;;48.70;22.93;;;;;;;0.27;100.00;102643.78;10467797;28;20044;-80
2024/01/12 14:15:55;;;;;;;35.97;22.83;;;;;;;0.27;100.00;102646.38;10483137;28;20051;-80
2024/01/12 14:20:57;;;;;;;44.33;25.63;;;;;;;0.25;100.00;102648.75;10468060;28;20136;-79
2024/01/12 14:25:57;;;;;;;41.30;25.75;;;;;;;0.18;100.00;102638.47;10466723;28;20037;-79
2024/01/12 14:30:58;;;;;;;41.58;25.13;;;;;;;0.16;100.00;102645.09;10481794;28;20044;-80
2024/01/12 14:35:59;;;;;;;37.80;24.37;;;;;;;0.10;100.00;102646.94;10462204;28;20041;-79
2024/01/12 14:41:00;;;;;;;44.70;25.02;;;;;;;0.05;100.00;102648.97;10428104;28;20051;-79
2024/01/12 14:46:01;;;;;;;50.10;26.23;;;;;;;0.03;100.00;102655.59;10542337;27;20491;-78
2024/01/12 14:51:03;;;;;;;38.55;24.10;;;;;;;-0.02;100.00;102649.88;10544137;27;20036;-78
2024/01/12 14:56:07;;;;;;;50.63;27.85;;;;;;;-0.03;100.00;102650.63;10505360;27;20036;-77
2024/01/12 15:01:08;;;;;;;53.72;25.08;;;;;;;-0.02;100.00;102652.47;10523486;27;20123;-77
2024/01/12 15:06:08;;;;;;;42.20;24.40;;;;;;;-0.11;100.00;102655.63;10513696;28;20043;-78
2024/01/12 15:11:09;;;;;;;39.37;23.47;;;;;;;-0.11;100.00;102650.47;10512519;28;20035;-78
2024/01/12 15:16:10;;;;;;;37.60;23.70;;;;;;;-0.08;100.00;102648.25;10503279;27;20036;-80
2024/01/12 15:21:10;;;;;;;28.67;17.63;;;;;;;-0.07;100.00;102651.00;10515844;27;20055;-80
2024/01/12 15:26:12;;;;;;;41.97;22.47;;;;;;;-0.07;100.00;102642.38;10508057;28;20123;-79
2024/01/12 15:31:13;;;;;;;42.20;23.75;;;;;;;-0.10;100.00;102647.16;10485477;28;20053;-79
2024/01/12 15:36:13;;;;;;;42.70;19.93;;;;;;;-0.17;100.00;102635.19;10481702;28;20060;-79
2024/01/12 15:41:14;;;;;;;45.50;22.50;;;;;;;-0.25;100.00;102644.59;10463716;28;20039;-80
2024/01/12 15:46:15;;;;;;;35.63;23.03;;;;;;;-0.28;100.00;102649.38;10509037;27;20051;-80
2024/01/12 15:51:15;;;;;;;49.87;26.17;;;;;;;-0.34;100.00;102654.69;10473914;28;20438;-82
2024/01/12 15:56:20;;;;;;;43.43;25.57;;;;;;;-0.38;100.00;102643.84;10504795;27;20468;-82
2024/01/12 16:01:23;;;;;;;42.70;27.58;;;;;;;-0.41;100.00;102628.94;10528712;27;20111;-79
2024/01/12 16:06:24;;;;;;;39.25;22.67;;;;;;;-0.42;100.00;102629.69;10529191;27;20036;-80
2024/01/12 16:11:24;;;;;;;36.23;23.30;;;;;;;-0.42;100.00;102608.19;10532292;27;20127;-82
2024/01/12 16:16:25;;;;;;;40.13;27.33;;;;;;;-0.46;100.00;102624.91;10525267;28;20128;-80
2024/01/12 16:21:33;;;;;;;35.63;22.67;;;;;;;-0.42;100.00;102629.69;10512784;27;20047;-82
2024/01/12 16:26:38;;;;;;;41.53;23.15;;;;;;;-0.42;100.00;102624.53;10509757;27;20377;-81
2024/01/12 16:31:39;;;;;;;55.20;29.00;;;;;;;-0.40;100.00;102633.38;10518250;27;20040;-81
2024/01/12 16:36:39;;;;;;;35.50;21.67;;;;;;;-0.44;100.00;102633.72;10528421;27;20123;-82
2024/01/12 16:41:40;;;;;;;45.50;26.87;;;;;;;-0.46;100.00;102627.47;10530391;27;20150;-81
2024/01/12 16:46:41;;;;;;;58.10;27.27;;;;;;;-0.49;100.00;102630.63;10527701;27;20040;-81
2024/01/12 16:51:41;;;;;;;40.17;25.47;;;;;;;-0.47;100.00;102621.44;10512140;27;20455;-81
2024/01/12 16:56:42;;;;;;;45.70;25.83;;;;;;;-0.47;100.00;102624.00;10506300;27;20127;-80
2024/01/12 17:01:43;;;;;;;49.07;30.77;;;;;;;-0.53;100.00;102628.41;10518239;28;20044;-80
2024/01/12 17:06:43;;;;;;;49.60;25.90;;;;;;;-0.51;100.00;102623.44;10523002;28;20123;-81
2024/01/12 17:11:44;;;;;;;40.10;26.17;;;;;;;-0.49;100.00;102622.91;10509766;27;20399;-81
2024/01/12 17:16:46;;;;;;;45.50;30.00;;;;;;;-0.46;100.00;102622.34;10525940;27;20487;-81
2024/01/12 17:21:46;;;;;;;48.58;29.50;;;;;;;-0.51;100.00;102615.72;10528336;27;20836;-81
2024/01/12 17:26:48;;;;;;;38.53;28.53;;;;;;;-0.55;100.00;102609.31;10526187;27;20127;-81
2024/01/12 17:31:49;;;;;;;50.42;30.92;;;;;;;-0.58;100.00;102597.72;10509907;27;20052;-80
2024/01/12 17:36:51;;;;;;;53.47;34.23;;;;;;;-0.54;100.00;102597.34;10526392;27;20044;-82
2024/01/12 17:41:51;;;;;;;42.97;28.60;;;;;;;-0.57;100.00;102594.41;10525482;27;20036;-81
2024/01/12 17:46:52;;;;;;;52.93;32.23;;;;;;;-0.53;100.00;102597.53;10521087;27;20139;-80
2024/01/12 17:51:52;;;;;;;49.13;30.63;;;;;;;-0.54;100.00;102592.19;10492826;27;20032;-83
2024/01/12 17:56:53;;;;;;;48.73;31.30;;;;;;;-0.56;100.00;102596.25;10479545;28;20115;-80
2024/01/12 18:01:54;;;;;;;44.03;31.03;;;;;;;-0.56;100.00;102588.53;10468224;28;20058;-80
2024/01/12 18:06:54;;;;;;;54.57;32.50;;;;;;;-0.58;100.00;102590.00;10482129;28;20044;-81
2024/01/12 18:11:56;;;;;;;58.47;31.70;;;;;;;-0.62;100.00;102593.88;10458808;28;20120;-81
2024/01/12 18:16:56;;;;;;;60.60;37.90;;;;;;;-0.64;100.00;102596.25;10495064;28;20509;-81
2024/01/12 18:21:57;;;;;;;60.10;35.50;;;;;;;-0.56;100.00;102598.81;10495722;28;20136;-82
2024/01/12 18:26:57;;;;;;;39.17;24.70;;;;;;;-0.60;100.00;102593.31;10482725;27;20168;-80
2024/01/12 18:31:59;;;;;;;55.10;37.27;;;;;;;-0.60;100.00;102588.16;10519622;28;20112;-80
2024/01/12 18:36:59;;;;;;;52.38;34.85;;;;;;;-0.60;100.00;102580.44;10461975;27;20036;-79
2024/01/12 18:42:00;;;;;;;54.37;34.53;;;;;;;-0.54;100.00;102590.56;10510330;28;20047;-80
2024/01/12 18:47:02;;;;;;;63.40;39.67;;;;;;;-0.55;100.00;102593.88;10478197;28;20036;-82
2024/01/12 18:52:03;;;;;;;58.23;36.67;;;;;;;-0.53;100.00;102587.25;10485916;28;20033;-81
2024/01/12 18:57:03;;;;;;;59.20;35.80;;;;;;;-0.53;100.00;102588.88;10497997;28;20063;-79
2024/01/12 19:02:04;;;;;;;53.77;38.87;;;;;;;-0.57;100.00;102587.63;10541481;28;20135;-79
2024/01/12 19:07:04;;;;;;;43.90;28.40;;;;;;;-0.57;100.00;102590.19;10496091;28;20039;-79
2024/01/12 19:12:05;;;;;;;60.90;38.50;;;;;;;-0.57;100.00;102589.25;10545423;28;20128;-79
2024/01/12 19:17:06;;;;;;;62.60;40.63;;;;;;;-0.51;100.00;102577.13;10511234;28;20036;-80
2024/01/12 19:22:06;;;;;;;45.20;27.07;;;;;;;-0.56;100.00;102571.47;10499193;27;20119;-81
2024/01/12 19:27:07;;;;;;;46.53;29.63;;;;;;;-0.56;100.00;102574.03;10523980;27;20096;-79
2024/01/12 19:32:11;;;;;;;54.67;38.50;;;;;;;-0.52;100.00;102560.78;10510921;27;20544;-79
2024/01/12 19:37:12;;;;;;;60.58;42.22;;;;;;;-0.56;100.00;102567.94;10514100;27;20036;-79
2024/01/12 19:42:13;;;;;;;62.80;41.33;;;;;;;-0.55;100.00;102568.16;10522311;27;20119;-79
2024/01/12 19:47:13;;;;;;;51.73;41.63;;;;;;;-0.56;100.00;102562.81;10504391;27;20075;-79
2024/01/12 19:52:14;;;;;;;61.53;35.03;;;;;;;-0.60;100.00;102548.66;10494570;28;20124;-79
2024/01/12 19:57:14;;;;;;;59.77;40.40;;;;;;;-0.59;100.00;102553.09;10506022;28;20456;-79
2024/01/12 20:02:15;;;;;;;70.03;43.50;;;;;;;-0.52;100.00;102539.28;10512233;28;20124;-80
2024/01/12 20:07:15;;;;;;;64.87;41.20;;;;;;;-0.54;100.00;102539.13;10497270;28;20040;-79
2024/01/12 20:12:16;;;;;;;62.27;39.47;;;;;;;-0.55;100.00;102542.44;10511916;28;20064;-80
2024/01/12 20:17:16;;;;;;;60.87;38.77;;;;;;;-0.60;100.00;102523.84;10508771;27;20040;-79
2024/01/12 20:22:17;;;;;;;61.33;38.87;;;;;;;-0.63;100.00;102531.19;10522270;27;20563;-79
2024/01/12 20:27:17;;;;;;;69.47;44.93;;;;;;;-0.57;100.00;102519.81;10510590;28;20043;-80
2024/01/12 20:32:18;;;;;;;57.23;41.47;;;;;;;-0.55;100.00;102519.28;10487917;28;20125;-79
2024/01/12 20:37:18;;;;;;;73.03;42.60;;;;;;;-0.57;100.00;102522.38;10519659;28;20170;-80
2024/01/12 20:42:19;;;;;;;60.20;37.47;;;;;;;-0.57;100.00;102527.53;10493421;28;20092;-80
2024/01/12 20:47:23;;;;;;;50.20;31.10;;;;;;;-0.59;100.00;102524.78;10520079;28;20044;-80
2024/01/12 20:52:23;;;;;;;72.50;40.72;;;;;;;-0.61;100.00;102527.16;10496655;28;20043;-81
2024/01/12 20:57:24;;;;;;;70.87;41.10;;;;;;;-0.65;100.00;102524.97;10471722;28;20037;-80
2024/01/12 21:02:24;;;;;;;63.27;39.93;;;;;;;-0.66;100.00;102512.84;10481561;28;20042;-78
2024/01/12 21:07:25;;;;;;;57.80;40.63;;;;;;;-0.67;100.00;102510.09;10487808;28;20381;-79
2024/01/12 21:12:26;;;;;;;53.90;30.70;;;;;;;-0.66;100.00;102510.25;10474806;28;20064;-79
2024/01/12 21:17:26;;;;;;;70.03;41.30;;;;;;;-0.67;100.00;102504.97;10480166;28;20111;-78
2024/01/12 21:22:27;;;;;;;75.50;41.67;;;;;;;-0.70;100.00;102513.22;10483927;28;20045;-80
2024/01/12 21:27:28;;;;;;;69.80;34.10;;;;;;;-0.67;100.00;102503.28;10484138;28;20052;-78
2024/01/12 21:32:28;;;;;;;76.38;43.42;;;;;;;-0.65;100.00;102496.66;10481169;28;20041;-79
2024/01/12 21:37:29;;;;;;;72.97;45.07;;;;;;;-0.69;100.00;102497.03;10483616;28;20040;-79
2024/01/12 21:42:30;;;;;;;62.13;43.07;;;;;;;-0.72;100.00;102494.09;10498296;28;20136;-79
2024/01/12 21:47:31;;;;;;;73.63;44.37;;;;;;;-0.72;100.00;102482.91;10513808;28;20404;-79
2024/01/12 21:52:31;;;;;;;82.20;45.50;;;;;;;-0.67;100.00;102474.09;10528959;28;20123;-79
2024/01/12 21:57:31;;;;;;;80.00;45.37;;;;;;;-0.64;100.00;102474.47;10525283;27;20135;-79
2024/01/12 22:02:32;;;;;;;68.93;41.83;;;;;;;-0.63;100.00;102468.56;10468889;28;20123;-78
2024/01/12 22:07:32;;;;;;;78.43;43.13;;;;;;;-0.62;100.00;102460.13;10483334;28;20179;-79
2024/01/12 22:12:33;;;;;;;70.67;45.97;;;;;;;-0.63;100.00;102461.75;10507752;27;20040;-79
2024/01/12 22:17:34;;;;;;;62.43;39.13;;;;;;;-0.61;100.00;102464.53;10489623;28;20052;-79